Time;durP1;ratioP1;P1;durP2;ratioP2;P2;SDS_P1;SDS_P2;PMS_P1;PMS_P2;Temp;Humidity;BMP_temperature;BMP_pressure;BME280_temperature;BME280_humidity;BME280_pressure;Samples;Min_cycle;Max_cycle;Signal;HPM_P1;HPM_P2
2023/05/29 00:00:48;;;;;;;5.57;4.60;;;15.80;99.90;;;;;;5008071;28;20199;-52
2023/05/29 00:03:15;;;;;;;4.90;4.40;;;15.80;99.90;;;;;;5008652;28;20210;-52
2023/05/29 00:05:42;;;;;;;7.60;4.97;;;15.70;99.90;;;;;;5008850;28;20211;-52
2023/05/29 00:08:10;;;;;;;7.37;5.30;;;15.70;99.90;;;;;;5008066;28;20198;-52
2023/05/29 00:10:37;;;;;;;6.57;5.57;;;15.80;99.90;;;;;;5021260;28;20198;-52
2023/05/29 00:13:04;;;;;;;10.03;5.67;;;15.80;99.90;;;;;;5016555;28;20203;-51
2023/05/29 00:15:31;;;;;;;7.40;5.70;;;15.70;99.90;;;;;;5009592;28;20266;-52
2023/05/29 00:17:58;;;;;;;5.93;5.30;;;15.60;99.90;;;;;;5013804;28;20203;-52
2023/05/29 00:20:25;;;;;;;5.70;5.30;;;15.50;99.90;;;;;;5016997;28;20226;-51
2023/05/29 00:22:52;;;;;;;5.63;5.10;;;15.50;99.90;;;;;;5011525;28;20256;-52
2023/05/29 00:25:20;;;;;;;7.40;5.07;;;15.40;99.90;;;;;;5010119;28;20200;-52
2023/05/29 00:27:47;;;;;;;6.53;4.73;;;15.50;99.90;;;;;;5016150;28;20282;-52
2023/05/29 00:30:14;;;;;;;5.00;4.60;;;15.40;99.90;;;;;;5008097;28;20809;-52
2023/05/29 00:32:41;;;;;;;6.80;5.00;;;15.40;99.90;;;;;;5007851;28;20228;-52
2023/05/29 00:35:09;;;;;;;7.23;5.90;;;15.30;99.90;;;;;;5013335;28;20224;-52
2023/05/29 00:37:36;;;;;;;6.57;4.90;;;15.30;99.90;;;;;;5012265;28;20665;-52
2023/05/29 00:40:04;;;;;;;6.20;5.60;;;15.20;99.90;;;;;;5024080;28;20277;-51
2023/05/29 00:42:33;;;;;;;5.03;4.63;;;15.20;99.90;;;;;;5005691;28;20207;-52
2023/05/29 00:44:59;;;;;;;7.10;5.67;;;15.10;99.90;;;;;;5007184;28;20199;-52
2023/05/29 00:47:27;;;;;;;10.33;5.23;;;15.10;99.90;;;;;;5010553;28;20292;-52
2023/05/29 00:49:56;;;;;;;9.63;5.40;;;15.10;99.90;;;;;;5014528;28;20281;-52
2023/05/29 00:52:24;;;;;;;7.23;5.40;;;15.10;99.90;;;;;;5014883;28;20247;-51
2023/05/29 00:54:51;;;;;;;8.83;6.17;;;15.10;99.90;;;;;;5006745;28;20206;-51
2023/05/29 00:57:18;;;;;;;7.00;5.20;;;14.90;99.90;;;;;;5011535;28;20319;-52
2023/05/29 00:59:48;;;;;;;6.97;5.53;;;14.90;99.90;;;;;;5020280;28;20281;-53
2023/05/29 01:02:18;;;;;;;6.40;5.90;;;14.90;99.90;;;;;;5006691;28;20199;-51
2023/05/29 01:04:46;;;;;;;10.07;4.97;;;15.00;99.90;;;;;;5010202;28;20317;-51
2023/05/29 01:07:13;;;;;;;6.33;5.13;;;15.00;99.90;;;;;;5007470;28;20203;-51
2023/05/29 01:09:41;;;;;;;7.57;5.20;;;15.00;99.90;;;;;;5014999;28;20309;-51
2023/05/29 01:12:20;;;;;;;6.97;6.10;;;15.00;99.90;;;;;;5015540;28;20254;-51
2023/05/29 01:15:04;;;;;;;6.83;5.47;;;14.90;99.90;;;;;;5019115;28;20213;-52
2023/05/29 01:17:39;;;;;;;5.77;5.17;;;14.80;99.90;;;;;;5006618;28;20298;-51
2023/05/29 01:20:19;;;;;;;7.60;5.63;;;14.80;99.90;;;;;;5007018;28;20258;-51
2023/05/29 01:23:07;;;;;;;6.50;5.97;;;14.70;99.90;;;;;;5011522;28;20202;-51
2023/05/29 01:25:51;;;;;;;6.57;5.33;;;14.60;99.90;;;;;;5011260;28;20219;-51
2023/05/29 01:28:22;;;;;;;6.07;5.23;;;14.60;99.90;;;;;;5003211;28;20265;-52
2023/05/29 01:30:51;;;;;;;7.50;6.50;;;14.60;99.90;;;;;;5016380;28;20214;-52
2023/05/29 01:33:18;;;;;;;7.17;6.10;;;14.50;99.90;;;;;;5009263;28;20250;-52
2023/05/29 01:35:45;;;;;;;6.67;5.37;;;14.40;99.90;;;;;;5012439;28;20203;-52
2023/05/29 01:38:12;;;;;;;7.67;5.37;;;14.40;99.90;;;;;;5020608;28;20758;-52
2023/05/29 01:40:39;;;;;;;5.57;5.07;;;14.30;99.90;;;;;;5011997;28;20207;-51
2023/05/29 01:43:07;;;;;;;10.27;5.67;;;14.30;99.90;;;;;;5014505;28;20632;-52
2023/05/29 01:45:37;;;;;;;6.43;5.83;;;14.30;99.90;;;;;;5014914;28;20687;-52
2023/05/29 01:48:05;;;;;;;7.23;5.47;;;14.30;99.90;;;;;;5011691;28;20199;-51
2023/05/29 01:50:32;;;;;;;7.53;6.23;;;14.20;99.90;;;;;;5016360;28;20223;-52
2023/05/29 01:52:59;;;;;;;7.40;5.73;;;14.20;99.90;;;;;;5012009;28;20251;-52
2023/05/29 01:55:26;;;;;;;7.90;5.40;;;14.20;99.90;;;;;;5021118;28;20195;-52
2023/05/29 01:57:54;;;;;;;8.07;6.20;;;14.20;99.90;;;;;;5011039;28;20272;-51
2023/05/29 02:00:21;;;;;;;10.83;6.63;;;14.30;99.90;;;;;;5010519;28;20851;-51
2023/05/29 02:02:51;;;;;;;7.83;7.13;;;14.20;99.90;;;;;;5013634;28;20282;-51
2023/05/29 02:05:18;;;;;;;11.40;6.43;;;14.00;99.90;;;;;;5013198;28;20223;-51
2023/05/29 02:07:46;;;;;;;6.83;6.23;;;14.00;99.90;;;;;;5018159;28;20264;-52
2023/05/29 02:10:13;;;;;;;8.43;5.97;;;13.90;99.90;;;;;;5014389;28;20229;-52
2023/05/29 02:12:40;;;;;;;6.10;5.60;;;13.80;99.90;;;;;;5018128;28;20227;-51
2023/05/29 02:15:08;;;;;;;8.77;5.90;;;13.80;99.90;;;;;;5011555;28;20206;-51
2023/05/29 02:17:35;;;;;;;8.70;5.50;;;13.80;99.90;;;;;;5017867;28;20203;-51
2023/05/29 02:20:04;;;;;;;8.67;6.77;;;13.80;99.90;;;;;;5017828;28;20789;-51
2023/05/29 02:22:31;;;;;;;8.83;7.47;;;14.00;99.90;;;;;;5008119;28;20661;-51
2023/05/29 02:24:58;;;;;;;7.87;7.00;;;14.10;99.90;;;;;;5010442;28;20261;-51
2023/05/29 02:27:25;;;;;;;8.77;7.33;;;14.00;99.90;;;;;;5009341;28;20661;-51
2023/05/29 02:29:52;;;;;;;8.77;7.83;;;13.90;99.90;;;;;;5015625;28;20291;-51
2023/05/29 02:32:19;;;;;;;6.70;6.10;;;13.80;99.90;;;;;;5010463;28;21231;-51
2023/05/29 02:34:46;;;;;;;9.47;7.27;;;13.70;99.90;;;;;;5020549;28;20283;-51
2023/05/29 02:37:14;;;;;;;9.30;6.90;;;13.70;99.90;;;;;;5010099;28;20203;-51
2023/05/29 02:39:41;;;;;;;11.13;5.90;;;13.60;99.90;;;;;;5012278;28;20227;-51
2023/05/29 02:42:08;;;;;;;9.20;6.80;;;13.60;99.90;;;;;;5012637;28;20245;-52
2023/05/29 02:44:35;;;;;;;12.40;7.03;;;13.50;99.90;;;;;;5009454;28;20203;-51
2023/05/29 02:47:02;;;;;;;7.37;5.70;;;13.50;99.90;;;;;;5013909;28;20247;-53
2023/05/29 02:49:29;;;;;;;9.23;6.97;;;13.40;99.90;;;;;;5025650;28;20336;-52
2023/05/29 02:51:56;;;;;;;10.60;7.60;;;13.40;99.90;;;;;;5015192;28;20249;-51
2023/05/29 02:54:25;;;;;;;7.77;6.70;;;13.40;99.90;;;;;;5018260;28;20195;-52
2023/05/29 02:56:52;;;;;;;9.00;6.23;;;13.30;99.90;;;;;;5010074;28;20199;-51
2023/05/29 02:59:19;;;;;;;9.17;6.70;;;13.40;99.90;;;;;;5008491;28;20222;-51
2023/05/29 03:01:47;;;;;;;11.57;8.57;;;13.40;99.90;;;;;;5012433;28;20211;-51
2023/05/29 03:04:14;;;;;;;8.20;6.23;;;13.40;99.90;;;;;;5009941;28;20199;-51
2023/05/29 03:06:41;;;;;;;9.77;7.33;;;13.40;99.90;;;;;;5007305;28;20203;-51
2023/05/29 03:09:08;;;;;;;10.87;7.40;;;13.40;99.90;;;;;;5002120;28;20645;-51
2023/05/29 03:11:37;;;;;;;9.43;5.90;;;13.20;99.90;;;;;;5006558;28;20231;-51
2023/05/29 03:14:04;;;;;;;8.53;6.77;;;13.20;99.90;;;;;;5020190;28;20707;-52
2023/05/29 03:16:31;;;;;;;7.87;6.83;;;13.20;99.90;;;;;;5012812;28;20253;-51
2023/05/29 03:18:58;;;;;;;7.07;6.47;;;13.10;99.90;;;;;;5007329;28;20226;-51
2023/05/29 03:21:25;;;;;;;9.00;7.40;;;13.10;99.90;;;;;;5010462;28;20199;-51
2023/05/29 03:23:52;;;;;;;7.03;6.30;;;13.10;99.90;;;;;;5011626;28;20703;-51
2023/05/29 03:26:19;;;;;;;10.63;7.60;;;13.10;99.90;;;;;;5006935;28;20203;-51
2023/05/29 03:28:47;;;;;;;11.83;7.73;;;13.10;99.90;;;;;;5008398;28;20281;-51
2023/05/29 03:31:15;;;;;;;8.17;6.50;;;13.00;99.90;;;;;;5013321;28;20195;-52
2023/05/29 03:33:42;;;;;;;6.87;6.27;;;13.00;99.90;;;;;;5021440;28;20758;-51
2023/05/29 03:36:10;;;;;;;7.93;6.43;;;13.00;99.90;;;;;;5016706;28;20269;-51
2023/05/29 03:38:37;;;;;;;8.30;7.47;;;13.00;99.90;;;;;;5009391;28;20227;-51
2023/05/29 03:41:04;;;;;;;9.40;7.57;;;12.90;99.90;;;;;;5008661;28;20211;-51
2023/05/29 03:43:31;;;;;;;8.27;7.47;;;12.90;99.90;;;;;;5006222;28;20199;-51
2023/05/29 03:45:59;;;;;;;10.43;7.13;;;12.90;99.90;;;;;;5016847;28;20213;-51
2023/05/29 03:48:27;;;;;;;6.20;5.67;;;12.90;99.90;;;;;;5008188;28;20231;-51
2023/05/29 03:50:53;;;;;;;9.67;7.40;;;12.90;99.90;;;;;;5010487;28;20203;-51
2023/05/29 03:53:20;;;;;;;8.50;7.70;;;12.90;99.90;;;;;;5008242;28;20250;-51
2023/05/29 03:55:47;;;;;;;9.00;7.10;;;12.90;99.90;;;;;;5005179;28;20287;-51
2023/05/29 03:58:15;;;;;;;8.77;6.03;;;12.90;99.90;;;;;;5005045;28;20195;-51
2023/05/29 04:00:42;;;;;;;8.93;6.87;;;12.90;99.90;;;;;;5018765;28;20252;-51
2023/05/29 04:03:11;;;;;;;7.37;6.47;;;13.00;99.90;;;;;;5004144;28;20646;-51
2023/05/29 04:05:38;;;;;;;6.10;5.50;;;13.00;99.90;;;;;;4999721;28;20238;-51
2023/05/29 04:08:05;;;;;;;9.13;7.50;;;13.00;99.90;;;;;;5004248;28;20210;-51
2023/05/29 04:10:33;;;;;;;7.30;6.60;;;13.10;99.90;;;;;;4998357;28;20223;-51
2023/05/29 04:13:00;;;;;;;7.60;6.73;;;13.10;99.90;;;;;;4996725;28;20251;-51
2023/05/29 04:15:28;;;;;;;8.80;7.17;;;13.30;99.90;;;;;;4996987;28;20219;-51
2023/05/29 04:17:55;;;;;;;11.43;6.57;;;13.30;99.90;;;;;;4998774;28;20754;-51
2023/05/29 04:20:24;;;;;;;6.33;5.73;;;13.40;99.90;;;;;;5001554;28;20269;-51
2023/05/29 04:22:50;;;;;;;8.97;5.73;;;13.60;99.90;;;;;;5006064;28;20199;-51
2023/05/29 04:25:18;;;;;;;7.17;5.43;;;13.70;99.90;;;;;;5008371;28;20312;-51
2023/05/29 04:27:48;;;;;;;9.50;4.90;;;13.60;99.90;;;;;;5017167;28;20234;-51
2023/05/29 04:30:16;;;;;;;5.50;4.37;;;13.60;99.90;;;;;;5022778;28;20221;-52
2023/05/29 04:32:43;;;;;;;5.17;4.73;;;13.60;99.90;;;;;;5019782;28;20214;-51
2023/05/29 04:35:10;;;;;;;5.63;4.17;;;13.70;99.90;;;;;;5010205;28;20268;-52
2023/05/29 04:37:43;;;;;;;5.27;4.77;;;13.70;99.90;;;;;;5011388;28;20203;-51
2023/05/29 04:40:11;;;;;;;7.83;4.93;;;13.80;99.90;;;;;;5015917;28;20317;-51
2023/05/29 04:42:39;;;;;;;7.87;4.57;;;13.80;99.90;;;;;;5017097;28;20576;-51
2023/05/29 04:45:10;;;;;;;4.90;4.43;;;14.00;99.90;;;;;;5012416;28;20232;-51
2023/05/29 04:47:42;;;;;;;8.17;4.67;;;14.20;99.90;;;;;;5009494;28;20576;-52
2023/05/29 04:50:10;;;;;;;7.10;5.03;;;14.40;99.90;;;;;;5000992;28;20229;-52
2023/05/29 04:52:39;;;;;;;6.27;5.13;;;14.40;99.90;;;;;;5002194;28;20313;-51
2023/05/29 04:55:07;;;;;;;7.73;5.60;;;14.50;99.90;;;;;;5016650;28;20203;-51
2023/05/29 04:57:34;;;;;;;5.10;4.13;;;14.60;99.90;;;;;;5017464;28;20206;-51
2023/05/29 05:00:05;;;;;;;7.10;4.83;;;14.80;99.90;;;;;;5011015;28;20223;-51
2023/05/29 05:02:32;;;;;;;7.43;5.83;;;15.00;99.90;;;;;;5011960;28;20214;-51
2023/05/29 05:04:59;;;;;;;6.33;5.17;;;15.20;99.90;;;;;;5013753;28;20261;-51
2023/05/29 05:07:26;;;;;;;5.70;4.83;;;15.30;99.90;;;;;;5017798;28;20203;-51
2023/05/29 05:09:54;;;;;;;5.50;4.97;;;15.60;99.90;;;;;;5015343;28;20281;-52
2023/05/29 05:12:21;;;;;;;5.83;5.30;;;16.00;99.90;;;;;;5009991;28;20278;-52
2023/05/29 05:14:48;;;;;;;5.67;5.17;;;16.50;99.90;;;;;;5022242;28;20199;-52
2023/05/29 05:17:15;;;;;;;6.90;5.27;;;17.10;99.90;;;;;;5017749;28;20215;-52
2023/05/29 05:19:42;;;;;;;5.60;5.20;;;17.60;99.90;;;;;;5032957;22;20705;-54
2023/05/29 05:22:12;;;;;;;6.00;4.83;;;18.30;99.90;;;;;;4995389;28;20298;-54
2023/05/29 05:24:39;;;;;;;17.40;5.47;;;18.70;99.90;;;;;;4991250;28;20212;-54
2023/05/29 05:27:10;;;;;;;6.97;5.83;;;19.30;99.90;;;;;;5002171;28;20585;-54
2023/05/29 05:29:38;;;;;;;5.77;5.30;;;19.70;99.90;;;;;;5004074;28;20223;-54
2023/05/29 05:32:09;;;;;;;5.57;4.60;;;19.90;99.90;;;;;;5018856;28;20202;-54
2023/05/29 05:34:36;;;;;;;6.53;5.40;;;20.50;99.90;;;;;;5017915;28;20203;-53
2023/05/29 05:37:04;;;;;;;6.83;4.37;;;20.60;99.90;;;;;;5013632;28;20195;-53
2023/05/29 05:39:31;;;;;;;6.37;5.77;;;21.00;99.90;;;;;;5007723;28;20219;-54
2023/05/29 05:41:58;;;;;;;5.73;5.20;;;21.30;99.90;;;;;;5023497;28;20214;-53
2023/05/29 05:44:27;;;;;;;5.90;5.37;;;21.40;99.90;;;;;;5016756;28;20202;-54
2023/05/29 05:46:54;;;;;;;6.60;5.93;;;21.60;99.90;;;;;;5025941;28;20203;-53
2023/05/29 05:49:21;;;;;;;5.90;5.50;;;21.50;99.90;;;;;;5029344;28;20639;-53
2023/05/29 05:51:48;;;;;;;5.57;5.20;;;21.90;99.90;;;;;;5014293;28;20211;-54
2023/05/29 05:54:15;;;;;;;6.20;5.17;;;22.20;99.90;;;;;;5013971;28;20223;-53
2023/05/29 05:56:42;;;;;;;5.57;4.97;;;22.50;99.90;;;;;;5014520;28;20199;-53
2023/05/29 05:59:11;;;;;;;5.80;4.63;;;22.80;99.90;;;;;;5011741;28;20215;-53
2023/05/29 06:01:41;;;;;;;5.33;4.60;;;23.30;99.90;;;;;;5029796;28;20285;-54
2023/05/29 06:04:08;;;;;;;4.80;4.50;;;23.30;99.90;;;;;;5027178;28;20191;-53
2023/05/29 06:06:35;;;;;;;5.03;4.63;;;23.80;99.90;;;;;;5020527;28;20210;-53
2023/05/29 06:09:04;;;;;;;4.87;4.47;;;24.40;99.90;;;;;;5012635;28;20716;-54
2023/05/29 06:11:31;;;;;;;7.07;5.47;;;24.40;99.90;;;;;;5008484;28;20238;-54
2023/05/29 06:14:01;;;;;;;4.50;4.10;;;24.50;99.90;;;;;;5007228;28;20212;-53
2023/05/29 06:16:28;;;;;;;5.10;4.70;;;24.90;99.90;;;;;;5006371;28;20207;-54
2023/05/29 06:18:57;;;;;;;8.03;5.17;;;25.50;99.90;;;;;;5001796;28;20573;-54
2023/05/29 06:21:24;;;;;;;4.13;3.87;;;25.80;99.90;;;;;;5009323;28;20203;-54
2023/05/29 06:23:51;;;;;;;5.20;4.80;;;25.80;99.90;;;;;;5017057;28;20203;-54
2023/05/29 06:26:18;;;;;;;10.10;4.40;;;25.80;99.90;;;;;;5026903;28;20260;-54
2023/05/29 06:28:45;;;;;;;5.70;5.20;;;26.30;99.90;;;;;;5033354;28;20229;-54
2023/05/29 06:31:12;;;;;;;5.07;4.67;;;26.70;99.90;;;;;;5033456;28;20203;-54
2023/05/29 06:33:39;;;;;;;7.93;4.80;;;26.80;99.90;;;;;;5030823;28;20735;-54
2023/05/29 06:36:08;;;;;;;5.73;5.27;;;26.30;99.70;;;;;;5016401;28;20235;-54
2023/05/29 06:38:35;;;;;;;6.00;5.30;;;26.00;99.90;;;;;;5011496;28;20231;-54
2023/05/29 06:41:01;;;;;;;5.53;5.03;;;25.70;99.90;;;;;;5022686;28;20261;-54
2023/05/29 06:43:29;;;;;;;5.37;4.43;;;25.50;99.90;;;;;;5027738;28;20195;-55
2023/05/29 06:45:56;;;;;;;14.30;4.83;;;25.10;99.90;;;;;;5024529;28;20235;-55
2023/05/29 06:48:23;;;;;;;5.27;4.77;;;24.50;99.90;;;;;;5019814;28;20195;-54
2023/05/29 06:50:50;;;;;;;7.30;5.33;;;24.40;99.90;;;;;;5020886;28;20770;-54
2023/05/29 06:53:18;;;;;;;6.13;4.70;;;25.10;99.90;;;;;;5013552;28;20254;-55
2023/05/29 06:55:45;;;;;;;6.22;5.07;;;25.70;99.90;;;;;;5007965;28;20204;-55
2023/05/29 06:58:12;;;;;;;6.33;5.73;;;26.00;99.90;;;;;;5013930;28;20195;-54
2023/05/29 07:00:39;;;;;;;7.25;5.07;;;26.20;99.90;;;;;;5020402;28;20223;-54
2023/05/29 07:03:06;;;;;;;6.88;6.28;;;26.80;99.80;;;;;;5019150;28;20222;-54
2023/05/29 07:05:33;;;;;;;7.67;6.80;;;26.70;98.10;;;;;;5023305;28;20195;-54
2023/05/29 07:08:00;;;;;;;6.00;5.37;;;26.50;99.80;;;;;;5015877;28;20203;-54
2023/05/29 07:10:29;;;;;;;6.57;5.33;;;26.30;99.60;;;;;;5018822;28;20281;-53
2023/05/29 07:12:55;;;;;;;6.57;5.30;;;26.60;99.90;;;;;;5010107;28;20196;-53
2023/05/29 07:15:22;;;;;;;6.13;5.40;;;26.20;99.30;;;;;;5016176;28;20666;-55
2023/05/29 07:17:49;;;;;;;6.60;4.93;;;26.60;99.20;;;;;;5012509;28;20207;-54
2023/05/29 07:20:18;;;;;;;6.07;5.50;;;27.30;98.50;;;;;;5000419;28;20628;-54
2023/05/29 07:22:45;;;;;;;7.70;5.10;;;27.80;99.20;;;;;;5012858;28;20296;-53
2023/05/29 07:25:13;;;;;;;6.13;5.53;;;27.20;99.40;;;;;;5013052;28;20246;-54
2023/05/29 07:27:41;;;;;;;6.30;5.47;;;27.10;98.90;;;;;;5012860;28;20203;-53
2023/05/29 07:30:10;;;;;;;8.37;5.97;;;26.30;99.30;;;;;;5012532;28;20266;-53
2023/05/29 07:32:37;;;;;;;7.97;5.67;;;26.00;99.90;;;;;;5011637;28;20616;-53
2023/05/29 07:35:04;;;;;;;8.80;5.57;;;25.70;99.90;;;;;;5019952;28;20251;-53
2023/05/29 07:37:31;;;;;;;7.13;6.43;;;26.50;99.90;;;;;;5027210;28;20429;-54
2023/05/29 07:39:58;;;;;;;6.43;5.50;;;26.00;99.80;;;;;;5032114;28;20272;-54
2023/05/29 07:42:25;;;;;;;9.07;5.60;;;26.20;99.90;;;;;;5010653;28;20203;-53
2023/05/29 07:44:53;;;;;;;8.10;5.23;;;26.10;99.50;;;;;;5009799;28;20273;-53
2023/05/29 07:47:21;;;;;;;5.63;5.13;;;26.40;99.90;;;;;;5012478;28;20257;-53
2023/05/29 07:49:48;;;;;;;10.53;6.03;;;26.50;98.40;;;;;;5012144;28;20306;-53
2023/05/29 07:52:15;;;;;;;5.90;5.50;;;26.40;99.90;;;;;;5019456;28;20200;-53
2023/05/29 07:54:42;;;;;;;7.87;6.43;;;26.70;98.80;;;;;;5012229;28;20337;-53
2023/05/29 07:57:10;;;;;;;6.07;5.57;;;27.20;98.40;;;;;;5012057;28;20746;-54
2023/05/29 07:59:37;;;;;;;6.73;6.23;;;27.90;97.70;;;;;;5012102;28;20234;-53
2023/05/29 08:02:08;;;;;;;6.80;6.20;;;27.50;98.60;;;;;;5011702;28;20210;-53
2023/05/29 08:04:36;;;;;;;6.10;5.60;;;27.10;97.90;;;;;;5012068;28;20552;-54
2023/05/29 08:07:07;;;;;;;6.95;6.05;;;27.70;97.90;;;;;;5014264;28;20213;-53
2023/05/29 08:09:34;;;;;;;6.70;5.25;;;27.60;97.20;;;;;;5014955;28;20223;-54
2023/05/29 08:12:01;;;;;;;9.43;6.70;;;27.20;99.90;;;;;;5016989;28;20203;-54
2023/05/29 08:14:29;;;;;;;7.55;6.72;;;27.40;98.70;;;;;;5014505;28;20219;-54
2023/05/29 08:16:56;;;;;;;7.57;6.38;;;27.70;98.50;;;;;;5009803;28;20815;-54
2023/05/29 08:19:24;;;;;;;7.07;6.38;;;27.60;98.70;;;;;;5011691;28;20281;-54
2023/05/29 08:21:51;;;;;;;6.90;5.93;;;27.90;98.20;;;;;;5011318;28;20209;-54
2023/05/29 08:24:19;;;;;;;7.32;6.70;;;28.70;98.00;;;;;;5012456;28;20199;-54
2023/05/29 08:26:46;;;;;;;7.72;5.55;;;28.80;97.10;;;;;;5026379;28;20213;-56
2023/05/29 08:29:14;;;;;;;6.20;5.60;;;28.30;97.20;;;;;;5025335;28;20670;-55
2023/05/29 08:31:40;;;;;;;7.07;6.40;;;27.80;98.10;;;;;;5010916;28;20209;-56
2023/05/29 08:34:10;;;;;;;5.88;5.20;;;28.70;97.10;;;;;;5004901;28;20219;-56
2023/05/29 08:36:41;;;;;;;6.40;5.80;;;28.40;97.40;;;;;;5028156;28;20198;-56
2023/05/29 08:39:08;;;;;;;9.18;6.18;;;28.50;96.80;;;;;;5030283;28;20225;-56
2023/05/29 08:41:44;;;;;;;6.63;6.05;;;28.60;96.30;;;;;;5026861;28;20217;-56
2023/05/29 08:44:15;;;;;;;6.88;6.20;;;28.90;97.70;;;;;;5030716;28;20692;-55
2023/05/29 08:46:43;;;;;;;5.90;5.13;;;29.20;96.10;;;;;;5015716;28;20203;-57
2023/05/29 08:49:13;;;;;;;6.40;4.82;;;29.30;97.90;;;;;;5015576;28;20282;-56
2023/05/29 08:51:43;;;;;;;6.15;5.75;;;29.70;96.00;;;;;;5015351;28;20207;-57
2023/05/29 08:54:11;;;;;;;6.25;5.65;;;29.70;95.10;;;;;;4997210;28;20219;-56
2023/05/29 08:56:37;;;;;;;6.10;5.65;;;29.80;94.70;;;;;;5023532;28;20246;-56
2023/05/29 08:59:06;;;;;;;6.15;4.97;;;29.30;93.70;;;;;;5016939;28;20594;-57
2023/05/29 09:01:34;;;;;;;5.20;4.80;;;29.30;95.60;;;;;;5033109;28;20203;-56
2023/05/29 09:04:01;;;;;;;6.88;5.75;;;29.40;93.80;;;;;;5017039;28;20203;-56
2023/05/29 09:06:29;;;;;;;6.95;5.43;;;29.30;95.20;;;;;;5020555;28;20664;-56
2023/05/29 09:08:58;;;;;;;6.28;5.70;;;29.40;93.40;;;;;;5018860;28;20584;-56
2023/05/29 09:11:25;;;;;;;6.18;5.57;;;29.30;94.90;;;;;;5024497;28;20786;-56
2023/05/29 09:13:53;;;;;;;8.32;5.95;;;29.10;95.60;;;;;;5018304;28;20250;-57
2023/05/29 09:16:20;;;;;;;5.20;4.70;;;29.10;95.20;;;;;;5025841;28;20202;-56
2023/05/29 09:18:48;;;;;;;6.30;5.55;;;28.90;93.80;;;;;;5021507;28;20648;-56
2023/05/29 09:21:27;;;;;;;5.50;5.00;;;29.70;93.80;;;;;;5018463;28;20214;-56
2023/05/29 09:24:03;;;;;;;8.35;5.40;;;28.30;94.10;;;;;;5020245;28;20222;-56
2023/05/29 09:26:30;;;;;;;5.95;5.45;;;28.40;95.10;;;;;;5017217;28;20224;-56
2023/05/29 09:28:58;;;;;;;8.98;5.03;;;29.10;94.00;;;;;;5016703;28;20576;-56
2023/05/29 09:31:25;;;;;;;6.63;5.80;;;29.80;93.80;;;;;;5027106;28;20207;-56
2023/05/29 09:33:52;;;;;;;5.85;5.00;;;28.50;92.60;;;;;;5013287;28;20227;-56
2023/05/29 09:36:22;;;;;;;8.30;5.13;;;29.20;93.30;;;;;;5007638;28;20238;-56
2023/05/29 09:38:51;;;;;;;5.93;5.10;;;29.40;93.40;;;;;;5013442;28;20281;-56
2023/05/29 09:41:24;;;;;;;7.18;5.43;;;29.60;93.30;;;;;;5012717;28;20204;-56
2023/05/29 09:43:53;;;;;;;5.80;5.32;;;29.90;92.70;;;;;;5019569;28;20206;-57
2023/05/29 09:46:20;;;;;;;7.20;6.13;;;30.30;91.90;;;;;;5018777;28;20198;-57
2023/05/29 09:48:47;;;;;;;5.53;4.65;;;29.50;92.10;;;;;;5017149;28;20234;-56
2023/05/29 09:51:23;;;;;;;5.55;5.05;;;29.90;92.40;;;;;;5022071;28;20198;-56
2023/05/29 09:53:53;;;;;;;8.77;5.07;;;29.90;92.30;;;;;;5018458;28;20819;-56
2023/05/29 09:56:25;;;;;;;7.65;6.32;;;30.30;90.50;;;;;;5016995;28;20581;-57
2023/05/29 09:58:57;;;;;;;6.95;6.07;;;31.20;90.50;;;;;;5014598;28;20269;-56
2023/05/29 10:01:24;;;;;;;5.22;4.75;;;31.50;90.40;;;;;;5018555;28;20550;-56
2023/05/29 10:03:51;;;;;;;6.20;5.40;;;31.90;92.30;;;;;;5011911;28;20201;-56
2023/05/29 10:06:21;;;;;;;7.93;5.25;;;31.60;93.10;;;;;;5011379;28;20305;-57
2023/05/29 10:08:53;;;;;;;7.15;5.10;;;30.90;92.10;;;;;;5011025;28;20665;-56
2023/05/29 10:11:26;;;;;;;5.35;4.90;;;31.10;90.00;;;;;;5017028;28;20577;-55
2023/05/29 10:13:57;;;;;;;6.72;5.75;;;31.30;87.70;;;;;;5016589;28;20657;-55
2023/05/29 10:16:26;;;;;;;5.28;4.80;;;31.40;88.40;;;;;;5013659;28;20207;-56
2023/05/29 10:18:56;;;;;;;5.38;4.90;;;31.40;88.80;;;;;;5015762;28;20286;-55
2023/05/29 10:21:25;;;;;;;6.43;4.75;;;31.30;86.60;;;;;;5011945;28;20205;-56
2023/05/29 10:23:53;;;;;;;5.35;4.97;;;31.00;90.80;;;;;;5015302;28;20230;-55
2023/05/29 10:26:22;;;;;;;5.90;5.22;;;30.30;90.10;;;;;;5016907;28;20256;-55
2023/05/29 10:28:56;;;;;;;5.18;4.68;;;30.30;88.20;;;;;;5032246;28;20238;-55
2023/05/29 10:31:30;;;;;;;5.10;4.57;;;30.10;91.60;;;;;;5033027;28;20257;-55
2023/05/29 10:34:09;;;;;;;5.78;5.25;;;30.30;90.00;;;;;;5015062;28;20575;-55
2023/05/29 10:36:43;;;;;;;6.30;5.38;;;30.50;91.30;;;;;;5011780;28;20254;-55
2023/05/29 10:39:11;;;;;;;5.00;4.53;;;30.70;91.70;;;;;;5018061;28;20583;-55
2023/05/29 10:41:40;;;;;;;6.05;5.25;;;30.30;89.30;;;;;;5029443;28;20289;-56
2023/05/29 10:44:43;;;;;;;5.78;5.18;;;30.10;88.00;;;;;;5022285;28;20194;-55
2023/05/29 10:47:12;;;;;;;7.35;5.78;;;30.30;90.90;;;;;;5001059;28;20261;-62
2023/05/29 10:49:39;;;;;;;5.40;4.90;;;30.10;89.40;;;;;;5012632;28;20220;-76
2023/05/29 10:52:11;;;;;;;6.40;5.82;;;29.60;87.70;;;;;;5007999;28;20199;-71
2023/05/29 10:54:56;;;;;;;5.55;5.05;;;28.90;91.00;;;;;;5011095;28;20308;-64
2023/05/29 10:57:24;;;;;;;5.40;5.00;;;28.60;92.70;;;;;;5010911;28;20199;-63
2023/05/29 11:00:05;;;;;;;7.78;5.45;;;28.40;90.30;;;;;;5016418;28;20227;-64
2023/05/29 11:02:33;;;;;;;8.68;5.03;;;27.80;91.00;;;;;;5029088;28;20248;-65
2023/05/29 11:05:18;;;;;;;4.47;4.07;;;27.80;92.00;;;;;;5022118;28;20195;-65
2023/05/29 11:07:56;;;;;;;4.70;4.32;;;27.60;93.50;;;;;;5013332;28;20203;-63
2023/05/29 11:10:45;;;;;;;5.40;5.00;;;27.50;90.60;;;;;;5007042;28;20223;-65
2023/05/29 11:13:23;;;;;;;4.47;4.25;;;27.80;91.50;;;;;;4996532;28;20728;-65
2023/05/29 11:16:05;;;;;;;5.78;5.38;;;27.80;92.00;;;;;;5011461;28;20278;-62
2023/05/29 11:18:40;;;;;;;5.00;4.60;;;27.50;91.00;;;;;;5012999;28;20291;-69
2023/05/29 11:21:16;;;;;;;5.10;4.80;;;27.40;92.50;;;;;;5014676;28;20290;-68
2023/05/29 11:23:43;;;;;;;4.68;4.25;;;27.20;92.10;;;;;;5019350;28;20258;-68
2023/05/29 11:26:12;;;;;;;4.85;4.35;;;27.50;92.80;;;;;;5010187;28;20290;-68
2023/05/29 11:28:39;;;;;;;4.97;4.10;;;27.70;93.30;;;;;;5018734;28;20348;-63
2023/05/29 11:31:09;;;;;;;5.72;4.20;;;27.10;91.70;;;;;;5013119;28;20238;-66
2023/05/29 11:33:42;;;;;;;4.72;4.32;;;27.10;92.40;;;;;;5012302;28;20820;-67
2023/05/29 11:36:10;;;;;;;4.53;4.28;;;26.90;92.20;;;;;;5018042;28;20254;-67
2023/05/29 11:38:37;;;;;;;5.07;4.68;;;27.00;93.10;;;;;;5026495;28;20681;-54
2023/05/29 11:41:04;;;;;;;4.88;4.35;;;27.20;92.00;;;;;;5009174;28;20207;-63
2023/05/29 11:43:32;;;;;;;4.60;4.30;;;27.20;90.10;;;;;;5011383;28;20218;-65
2023/05/29 11:45:59;;;;;;;5.13;4.70;;;27.20;91.30;;;;;;5012964;28;20291;-66
2023/05/29 11:48:27;;;;;;;4.72;4.30;;;27.20;92.70;;;;;;5011857;28;20581;-68
2023/05/29 11:50:56;;;;;;;4.40;4.10;;;27.20;91.40;;;;;;5018300;28;20643;-70
2023/05/29 11:53:23;;;;;;;6.10;5.00;;;27.10;91.40;;;;;;5018158;28;20199;-69
2023/05/29 11:55:51;;;;;;;5.40;4.57;;;27.20;93.40;;;;;;5026461;28;20223;-71
2023/05/29 11:58:18;;;;;;;5.13;4.65;;;27.20;94.50;;;;;;5014423;28;20289;-68
2023/05/29 12:00:46;;;;;;;4.97;4.65;;;27.10;93.30;;;;;;5008944;28;20215;-69
2023/05/29 12:03:13;;;;;;;4.38;3.97;;;27.10;92.70;;;;;;5011309;28;20205;-64
2023/05/29 12:05:48;;;;;;;5.37;4.87;;;26.90;92.40;;;;;;5025459;22;20673;-67
2023/05/29 12:08:17;;;;;;;5.40;4.97;;;26.60;92.90;;;;;;4988860;28;20262;-66
2023/05/29 12:10:51;;;;;;;4.50;4.03;;;26.20;92.80;;;;;;4998958;28;20211;-68
2023/05/29 12:13:20;;;;;;;4.70;4.25;;;26.30;92.40;;;;;;4996031;28;20415;-63
2023/05/29 12:15:48;;;;;;;5.33;4.47;;;26.40;92.10;;;;;;4997748;28;20219;-54
2023/05/29 12:18:16;;;;;;;4.72;4.32;;;26.50;90.70;;;;;;4995996;28;20204;-60
2023/05/29 12:20:43;;;;;;;3.87;3.57;;;26.60;90.20;;;;;;4984277;28;20211;-53
2023/05/29 12:23:11;;;;;;;5.10;3.97;;;26.40;90.50;;;;;;4988211;28;20199;-53
2023/05/29 12:25:40;;;;;;;4.25;3.95;;;26.40;91.60;;;;;;4988809;28;20204;-53
2023/05/29 12:28:07;;;;;;;5.18;4.68;;;26.60;91.50;;;;;;4992104;28;20662;-53
2023/05/29 12:30:40;;;;;;;4.07;3.77;;;26.70;90.70;;;;;;4987787;28;20745;-53
2023/05/29 12:33:08;;;;;;;4.95;4.43;;;26.80;92.00;;;;;;4991341;28;20204;-53
2023/05/29 12:35:35;;;;;;;3.60;3.30;;;27.00;91.10;;;;;;4989152;28;20228;-53
2023/05/29 12:38:03;;;;;;;4.05;3.70;;;26.90;87.70;;;;;;4991386;28;20208;-53
2023/05/29 12:40:33;;;;;;;4.05;3.75;;;27.10;89.10;;;;;;4991634;28;20290;-53
2023/05/29 12:43:04;;;;;;;4.35;3.92;;;27.10;89.50;;;;;;4991387;28;20211;-53
2023/05/29 12:45:32;;;;;;;3.97;3.67;;;26.90;89.50;;;;;;4991917;28;20200;-53
2023/05/29 12:48:02;;;;;;;4.63;4.15;;;26.90;89.40;;;;;;5004608;28;20204;-53
2023/05/29 12:50:30;;;;;;;4.22;3.85;;;26.60;90.10;;;;;;4991708;28;20207;-55
2023/05/29 12:53:02;;;;;;;4.23;3.93;;;26.60;90.50;;;;;;4991161;28;20223;-55